This is the latest recevied weather packets stored in our database for station/object N3HBJ. If no packets are shown the sender has not sent any weather packets the latest 10 day(s).
| Time | Temp. | Humidity | Pressure | Rain* | Wind** | Luminosity | Snow |
|---|---|---|---|---|---|---|---|
| 1777902237 | 14.44° C | 47% | 1011.6 hPa | 0 mm | - | 610 W/m² | - |
| 1777900430 | 13.33° C | 50% | 1011.5 hPa | 0 mm | - | 513 W/m² | - |
| 1777899530 | 12.78° C | 51% | 1011.6 hPa | 0 mm | - | 531 W/m² | - |
| 1777898630 | 11.67° C | 57% | 1011.8 hPa | 0 mm | - | 200 W/m² | - |
| 1777897873 | 11.11° C | 58% | 1011.8 hPa | 0 mm | - | 218 W/m² | - |
| 1777897571 | 10.56° C | 60% | 1011.7 hPa | 0 mm | - | 116 W/m² | - |
| 1777894115 | 3.33° C | 90% | 1011.7 hPa | 0 mm | - | 40 W/m² | - |
| 1777892294 | 1.67° C | 89% | 1011.9 hPa | 0 mm | - | 49 W/m² | - |
| 1777889907 | 1.67° C | 88% | 1011.9 hPa | 0 mm | - | 11 W/m² | - |
| 1777885698 | 0° C | 90% | 1012.4 hPa | 0 mm | - | 0 W/m² | - |
| 1777882525 | 0.56° C | 87% | 1012.6 hPa | 0 mm | - | 0 W/m² | - |
| 1777881779 | 0.56° C | 87% | 1012.5 hPa | 0 mm | - | 0 W/m² | - |
| 1777881480 | 0.56° C | 87% | 1012.5 hPa | 0 mm | - | 0 W/m² | - |
| 1777879071 | 0.56° C | 87% | 1012.8 hPa | 0 mm | - | 0 W/m² | - |
| 1777878467 | 1.11° C | 87% | 1012.9 hPa | 0 mm | - | 0 W/m² | - |
| 1777876362 | 1.11° C | 87% | 1013 hPa | 0 mm | - | 0 W/m² | - |
| 1777875765 | 1.67° C | 87% | 1013 hPa | 0 mm | - | 0 W/m² | - |
| 1777875162 | 1.67° C | 86% | 1013.1 hPa | 0 mm | - | 0 W/m² | - |
| 1777874703 | 1.67° C | 86% | 1013.3 hPa | 0 mm | - | 0 W/m² | - |
| 1777874261 | 1.67° C | 86% | 1013.1 hPa | 0 mm | - | 0 W/m² | - |
| 1777873058 | 1.67° C | 86% | 1013.4 hPa | 0 mm | - | 0 W/m² | - |
| 1777871857 | 2.22° C | 85% | 1013.5 hPa | 0 mm | - | 0 W/m² | - |
| 1777869594 | 2.78° C | 82% | 1013.6 hPa | 0 mm | - | 0 W/m² | - |
| 1777865537 | 3.33° C | 79% | 1013.4 hPa | 0 mm | - | 0 W/m² | - |
| 1777863272 | 4.44° C | 78% | 1013.5 hPa | 0 mm | - | 0 W/m² | - |
* Rain latest hour (hover to see other rain measurements)
** Current wind speed in m/s (hover to see current wind gust speed)